Time;durP1;ratioP1;P1;durP2;ratioP2;P2;SDS_P1;SDS_P2;PMS_P1;PMS_P2;Temp;Humidity;BMP_temperature;BMP_pressure;BME280_temperature;BME280_humidity;BME280_pressure;Samples;Min_cycle;Max_cycle;Signal;HPM_P1;HPM_P2
2022/10/16 00:01:45;;;;;;;4.70;4.50;;;14.80;1.00;;;;;;6383083;27;20238;-54
2022/10/16 00:04:48;;;;;;;4.60;4.40;;;14.90;1.00;;;;;;6389236;27;20359;-53
2022/10/16 00:07:51;;;;;;;4.47;4.27;;;14.90;1.00;;;;;;6388539;27;20718;-52
2022/10/16 00:10:59;;;;;;;3.73;3.63;;;14.90;1.00;;;;;;6388325;27;20230;-54
2022/10/16 00:14:06;;;;;;;4.27;4.17;;;14.90;1.00;;;;;;6390252;27;20627;-54
2022/10/16 00:17:08;;;;;;;4.80;4.70;;;15.00;1.00;;;;;;6384767;27;20219;-54
2022/10/16 00:20:11;;;;;;;4.67;4.47;;;15.00;1.00;;;;;;6388847;27;20396;-53
2022/10/16 00:23:14;;;;;;;4.13;4.03;;;15.00;1.00;;;;;;6389678;27;20607;-53
2022/10/16 00:26:18;;;;;;;4.13;4.03;;;15.00;1.00;;;;;;6379897;27;20233;-54
2022/10/16 00:29:22;;;;;;;3.93;3.83;;;15.10;1.00;;;;;;6389417;27;20464;-54
2022/10/16 00:32:25;;;;;;;3.93;3.70;;;15.20;1.00;;;;;;6387862;27;20727;-53
2022/10/16 00:35:28;;;;;;;3.90;3.73;;;15.20;1.00;;;;;;6362919;27;20260;-54
2022/10/16 00:38:32;;;;;;;4.00;3.70;;;15.20;1.00;;;;;;6385892;27;20225;-53
2022/10/16 00:41:35;;;;;;;3.53;3.30;;;15.20;1.00;;;;;;6376632;27;20223;-59
2022/10/16 00:44:49;;;;;;;3.10;3.10;;;15.30;1.00;;;;;;6386736;27;20629;-54
2022/10/16 00:47:54;;;;;;;3.43;3.27;;;15.30;1.00;;;;;;6388241;27;20227;-54
2022/10/16 00:50:58;;;;;;;3.27;3.20;;;15.30;1.00;;;;;;6384534;27;20246;-53
2022/10/16 00:54:04;;;;;;;3.30;3.20;;;15.30;1.00;;;;;;6363305;27;20231;-54
2022/10/16 00:57:08;;;;;;;3.30;3.30;;;15.30;1.00;;;;;;6374477;27;20809;-53
2022/10/16 01:00:17;;;;;;;4.47;3.30;;;15.30;1.00;;;;;;6382734;27;20251;-53
2022/10/16 01:03:27;;;;;;;4.33;3.23;;;15.30;1.00;;;;;;6361780;27;20492;-53
2022/10/16 01:06:41;;;;;;;3.17;3.17;;;15.30;1.00;;;;;;6362582;27;20730;-54
2022/10/16 01:09:55;;;;;;;3.10;3.00;;;15.30;1.00;;;;;;6383251;27;20731;-53
2022/10/16 01:13:03;;;;;;;3.23;3.03;;;15.30;1.00;;;;;;6379613;27;20282;-53
2022/10/16 01:16:14;;;;;;;3.50;3.40;;;15.30;1.00;;;;;;6388225;27;20237;-54
2022/10/16 01:19:27;;;;;;;2.97;2.80;;;15.30;1.00;;;;;;6375669;27;20231;-53
2022/10/16 01:22:39;;;;;;;3.50;3.30;;;15.30;1.00;;;;;;6362348;27;20235;-55
2022/10/16 01:25:59;;;;;;;2.80;2.80;;;15.30;1.00;;;;;;6370037;27;20230;-53
2022/10/16 01:29:06;;;;;;;3.03;3.03;;;15.30;1.00;;;;;;6370832;27;20270;-54
2022/10/16 01:32:17;;;;;;;2.97;2.87;;;15.40;1.00;;;;;;6385737;27;20239;-53
2022/10/16 01:35:24;;;;;;;2.77;2.77;;;15.40;1.00;;;;;;6378935;27;20865;-53
2022/10/16 01:38:31;;;;;;;2.90;2.90;;;15.40;1.00;;;;;;6371278;27;20223;-54
2022/10/16 01:41:38;;;;;;;3.23;3.03;;;15.50;1.00;;;;;;6384908;27;20269;-60
2022/10/16 01:44:46;;;;;;;3.37;3.27;;;15.50;1.00;;;;;;6374236;27;20242;-54
2022/10/16 01:47:51;;;;;;;2.50;2.50;;;15.50;1.00;;;;;;6359352;27;20731;-54
2022/10/16 01:50:59;;;;;;;3.00;2.90;;;15.50;1.00;;;;;;6359525;27;20235;-53
2022/10/16 01:54:05;;;;;;;2.80;2.80;;;15.50;1.00;;;;;;6367459;27;20230;-53
2022/10/16 01:57:09;;;;;;;3.00;2.90;;;15.50;1.00;;;;;;6385505;27;20476;-54
2022/10/16 02:00:15;;;;;;;3.33;3.10;;;15.50;1.00;;;;;;6386216;27;20234;-53
2022/10/16 02:03:20;;;;;;;2.73;2.73;;;15.50;1.00;;;;;;6380058;27;20227;-54
2022/10/16 02:06:24;;;;;;;3.27;3.07;;;15.50;1.00;;;;;;6382165;27;20231;-53
2022/10/16 02:09:27;;;;;;;3.00;2.90;;;15.50;1.00;;;;;;6382482;27;20239;-55
2022/10/16 02:12:33;;;;;;;2.50;2.33;;;15.50;1.00;;;;;;6384924;27;20538;-53
2022/10/16 02:15:38;;;;;;;2.60;2.60;;;15.50;1.00;;;;;;6379605;27;20226;-55
2022/10/16 02:18:41;;;;;;;2.50;2.40;;;15.50;1.00;;;;;;6385998;27;20637;-54
2022/10/16 02:21:47;;;;;;;2.87;2.87;;;15.60;1.00;;;;;;6384942;27;20769;-54
2022/10/16 02:24:55;;;;;;;2.93;2.87;;;15.60;1.00;;;;;;6369035;27;20356;-54
2022/10/16 02:28:02;;;;;;;3.03;3.03;;;15.60;1.00;;;;;;6376190;27;20484;-52
2022/10/16 02:31:09;;;;;;;2.70;2.70;;;15.60;1.00;;;;;;6382798;27;20234;-53
2022/10/16 02:34:14;;;;;;;2.93;2.93;;;15.60;1.00;;;;;;6380495;27;20626;-54
2022/10/16 02:37:18;;;;;;;3.10;2.87;;;15.60;1.00;;;;;;6384389;27;20241;-53
2022/10/16 02:40:21;;;;;;;3.10;3.00;;;15.70;1.00;;;;;;6382289;27;20313;-53
2022/10/16 02:43:27;;;;;;;3.17;2.83;;;15.70;1.00;;;;;;6360098;27;20234;-53
2022/10/16 02:46:31;;;;;;;2.90;2.80;;;15.70;1.00;;;;;;6383424;27;20242;-54
2022/10/16 02:49:34;;;;;;;3.17;3.10;;;15.70;1.00;;;;;;6384370;27;20234;-55
2022/10/16 02:52:37;;;;;;;2.80;2.80;;;15.70;1.00;;;;;;6379633;27;20672;-54
2022/10/16 02:55:39;;;;;;;2.93;2.83;;;15.70;1.00;;;;;;6373387;27;20399;-54
2022/10/16 02:58:42;;;;;;;2.70;2.60;;;15.70;1.00;;;;;;6382059;27;20924;-54
2022/10/16 03:01:46;;;;;;;3.10;3.00;;;15.70;1.00;;;;;;6376653;27;20230;-53
2022/10/16 03:04:49;;;;;;;3.03;2.90;;;15.70;1.00;;;;;;6361755;27;20747;-54
2022/10/16 03:07:53;;;;;;;3.23;3.07;;;15.60;1.00;;;;;;6370359;27;20738;-54
2022/10/16 03:10:56;;;;;;;3.10;3.00;;;15.60;1.00;;;;;;6383710;27;20246;-54
2022/10/16 03:13:59;;;;;;;2.90;2.90;;;15.50;1.00;;;;;;6364204;27;20234;-53
2022/10/16 03:17:03;;;;;;;3.10;3.10;;;15.50;1.00;;;;;;6357604;28;20818;-54
2022/10/16 03:20:06;;;;;;;3.30;3.10;;;15.40;1.00;;;;;;6357160;27;20814;-55
2022/10/16 03:23:10;;;;;;;2.93;2.83;;;15.40;1.00;;;;;;6361347;27;20275;-55
2022/10/16 03:26:12;;;;;;;3.30;3.30;;;15.40;1.00;;;;;;6355918;27;20218;-52
2022/10/16 03:29:40;;;;;;;3.10;3.00;;;15.40;1.00;;;;;;6383756;27;20843;-54
2022/10/16 03:33:08;;;;;;;3.03;2.93;;;15.30;1.00;;;;;;6370817;27;20727;-55
2022/10/16 03:36:11;;;;;;;2.90;2.80;;;15.30;1.00;;;;;;6386636;27;20231;-54
2022/10/16 03:39:14;;;;;;;3.10;3.00;;;15.20;1.00;;;;;;6387220;27;20238;-55
2022/10/16 03:42:17;;;;;;;3.17;2.87;;;15.30;1.00;;;;;;6383983;27;20492;-55
2022/10/16 03:45:20;;;;;;;2.60;2.60;;;15.20;1.00;;;;;;6387832;27;20234;-55
2022/10/16 03:48:24;;;;;;;2.83;2.73;;;15.20;1.00;;;;;;6386234;27;20237;-54
2022/10/16 03:51:27;;;;;;;2.97;2.97;;;15.10;1.00;;;;;;6385578;27;20687;-54
2022/10/16 03:54:30;;;;;;;2.80;2.80;;;15.10;1.00;;;;;;6385466;27;20231;-55
2022/10/16 03:57:32;;;;;;;2.90;2.90;;;15.10;1.00;;;;;;6386994;27;20230;-53
2022/10/16 04:00:35;;;;;;;2.60;2.60;;;15.10;1.00;;;;;;6383944;27;20241;-54
2022/10/16 04:03:39;;;;;;;3.30;3.10;;;15.10;1.00;;;;;;6387049;27;20265;-54
2022/10/16 04:06:42;;;;;;;2.90;2.80;;;15.10;1.00;;;;;;6386544;27;20565;-54
2022/10/16 04:09:45;;;;;;;2.90;2.80;;;15.00;1.00;;;;;;6385848;27;20234;-54
2022/10/16 04:12:48;;;;;;;2.57;2.57;;;15.00;1.00;;;;;;6385859;27;20699;-54
2022/10/16 04:15:51;;;;;;;2.60;2.60;;;15.00;1.00;;;;;;6375375;27;20245;-54
2022/10/16 04:18:55;;;;;;;3.20;3.00;;;15.00;1.00;;;;;;6380780;27;20769;-54
2022/10/16 04:21:58;;;;;;;2.87;2.80;;;15.00;1.00;;;;;;6384637;27;20714;-52
2022/10/16 04:25:00;;;;;;;3.50;3.30;;;15.00;1.00;;;;;;6384294;27;20237;-53
2022/10/16 04:28:04;;;;;;;3.60;3.50;;;15.00;1.00;;;;;;6385999;27;20322;-55
2022/10/16 04:31:07;;;;;;;2.90;2.90;;;15.00;1.00;;;;;;6381274;27;20409;-55
2022/10/16 04:34:11;;;;;;;3.53;3.33;;;14.90;1.00;;;;;;6385769;27;20603;-55
2022/10/16 04:37:14;;;;;;;3.13;3.10;;;14.90;1.00;;;;;;6383427;27;20343;-54
2022/10/16 04:40:17;;;;;;;3.20;3.20;;;14.90;1.00;;;;;;6383639;27;20703;-53
2022/10/16 04:43:20;;;;;;;2.90;2.90;;;14.90;1.00;;;;;;6385459;27;20242;-53
2022/10/16 04:46:23;;;;;;;3.40;3.30;;;14.90;1.00;;;;;;6378806;27;20230;-54
2022/10/16 04:49:27;;;;;;;2.87;2.87;;;14.80;1.00;;;;;;6384590;27;20253;-53
2022/10/16 04:52:31;;;;;;;3.40;3.23;;;14.80;1.00;;;;;;6385708;27;20241;-54
2022/10/16 04:55:34;;;;;;;3.13;3.03;;;14.80;1.00;;;;;;6383900;27;20226;-54
2022/10/16 04:58:37;;;;;;;4.03;3.33;;;14.80;1.00;;;;;;6384866;27;20223;-54
2022/10/16 05:01:40;;;;;;;3.17;3.13;;;14.80;1.00;;;;;;6378162;27;20325;-54
2022/10/16 05:04:44;;;;;;;2.73;2.73;;;14.70;1.00;;;;;;6382986;27;20241;-53
2022/10/16 05:07:47;;;;;;;2.90;2.90;;;14.70;1.00;;;;;;6382528;27;20231;-54
2022/10/16 05:10:50;;;;;;;3.27;3.20;;;14.70;1.00;;;;;;6381872;27;20265;-55
2022/10/16 05:13:53;;;;;;;2.77;2.77;;;14.60;1.00;;;;;;6381326;27;20468;-53
2022/10/16 05:16:57;;;;;;;3.10;3.00;;;14.60;1.00;;;;;;6384103;27;20227;-55
2022/10/16 05:20:02;;;;;;;4.13;4.00;;;14.60;1.00;;;;;;6377813;27;20229;-54
2022/10/16 05:23:04;;;;;;;3.30;3.30;;;14.60;1.00;;;;;;6384744;27;20234;-54
2022/10/16 05:26:07;;;;;;;3.40;3.23;;;14.50;1.00;;;;;;6378897;27;20230;-54
2022/10/16 05:29:10;;;;;;;3.70;3.50;;;14.50;1.00;;;;;;6352515;27;20588;-54
2022/10/16 05:32:13;;;;;;;3.87;3.73;;;14.50;1.00;;;;;;6351459;27;20226;-53
2022/10/16 05:35:18;;;;;;;3.80;3.70;;;14.50;1.00;;;;;;6380504;27;20227;-54
2022/10/16 05:38:21;;;;;;;3.77;3.67;;;14.50;1.00;;;;;;6377470;27;20219;-53
2022/10/16 05:41:25;;;;;;;3.50;3.40;;;14.50;1.00;;;;;;6383363;27;20230;-53
2022/10/16 05:44:28;;;;;;;3.97;3.77;;;14.50;1.00;;;;;;6383008;27;20230;-54
2022/10/16 05:47:31;;;;;;;3.70;3.60;;;14.50;1.00;;;;;;6378621;27;20624;-54
2022/10/16 05:50:35;;;;;;;3.63;3.53;;;14.50;1.00;;;;;;6382329;27;20973;-52
2022/10/16 05:53:40;;;;;;;3.70;3.60;;;14.50;1.00;;;;;;6376373;27;20250;-54
2022/10/16 05:56:43;;;;;;;3.80;3.70;;;14.50;1.00;;;;;;6384083;27;20231;-54
2022/10/16 05:59:45;;;;;;;3.37;3.37;;;14.50;1.00;;;;;;6383994;27;20233;-55
2022/10/16 06:02:48;;;;;;;3.73;3.63;;;14.50;1.00;;;;;;6380922;27;20235;-55
2022/10/16 06:05:52;;;;;;;4.00;3.80;;;14.50;1.00;;;;;;6380400;27;20242;-54
2022/10/16 06:08:56;;;;;;;3.70;3.70;;;14.50;1.00;;;;;;6380481;27;20631;-54
2022/10/16 06:11:59;;;;;;;3.77;3.60;;;14.50;1.00;;;;;;6382682;27;20465;-53
2022/10/16 06:15:02;;;;;;;3.70;3.60;;;14.50;1.00;;;;;;6384522;27;20614;-53
2022/10/16 06:18:05;;;;;;;3.60;3.60;;;14.50;1.00;;;;;;6381430;27;20272;-54
2022/10/16 06:21:11;;;;;;;3.80;3.60;;;14.60;1.00;;;;;;6376095;27;20352;-54
2022/10/16 06:24:14;;;;;;;3.70;3.60;;;14.60;1.00;;;;;;6381260;27;20227;-54
2022/10/16 06:27:17;;;;;;;3.60;3.50;;;14.60;1.00;;;;;;6382597;27;20234;-54
2022/10/16 06:30:19;;;;;;;3.70;3.60;;;14.70;1.00;;;;;;6383702;27;20461;-54
2022/10/16 06:33:22;;;;;;;4.30;4.10;;;14.70;1.00;;;;;;6382787;27;20246;-54
2022/10/16 06:36:27;;;;;;;4.50;4.30;;;14.80;1.00;;;;;;6382608;27;20227;-54
2022/10/16 06:39:30;;;;;;;3.80;3.60;;;14.80;1.00;;;;;;6383010;27;20242;-57
2022/10/16 06:42:32;;;;;;;3.80;3.70;;;14.90;1.00;;;;;;6382040;27;20243;-53
2022/10/16 06:45:35;;;;;;;3.50;3.40;;;14.90;1.00;;;;;;6382382;27;20231;-52
2022/10/16 06:48:38;;;;;;;3.70;3.60;;;14.90;1.00;;;;;;6383221;27;20690;-54
2022/10/16 06:51:42;;;;;;;3.33;3.23;;;15.00;1.00;;;;;;6383307;27;20238;-57
2022/10/16 06:54:45;;;;;;;4.07;3.87;;;15.00;1.00;;;;;;6382798;27;20227;-54
2022/10/16 06:57:49;;;;;;;4.07;3.73;;;15.00;1.00;;;;;;6379430;27;20226;-54
2022/10/16 07:00:57;;;;;;;4.20;4.00;;;15.00;1.00;;;;;;6379185;27;20230;-55
2022/10/16 07:04:00;;;;;;;3.73;3.63;;;15.00;1.00;;;;;;6388452;27;20237;-53
2022/10/16 07:07:05;;;;;;;5.20;5.00;;;15.10;1.00;;;;;;6385429;27;20245;-53
2022/10/16 07:10:11;;;;;;;5.80;5.30;;;15.10;1.00;;;;;;6382664;27;20238;-55
2022/10/16 07:13:14;;;;;;;5.07;4.87;;;15.20;1.00;;;;;;6388692;27;20249;-53
2022/10/16 07:16:18;;;;;;;6.30;5.97;;;15.40;1.00;;;;;;6384760;27;20234;-54
2022/10/16 07:19:21;;;;;;;4.93;4.73;;;15.60;1.00;;;;;;6386414;27;20707;-53
2022/10/16 07:22:26;;;;;;;5.50;5.30;;;15.80;1.00;;;;;;6384908;27;20230;-54
2022/10/16 07:25:29;;;;;;;5.50;5.20;;;15.90;1.00;;;;;;6387729;27;20555;-53
2022/10/16 07:28:33;;;;;;;4.00;3.90;;;16.00;1.00;;;;;;6389332;27;20231;-53
2022/10/16 07:31:37;;;;;;;3.43;3.33;;;16.10;1.00;;;;;;6388351;27;20718;-54
2022/10/16 07:34:40;;;;;;;6.47;5.97;;;16.20;1.00;;;;;;6386918;27;20226;-55
2022/10/16 07:37:47;;;;;;;4.07;3.83;;;16.30;1.00;;;;;;6387706;27;20242;-54
2022/10/16 07:40:57;;;;;;;3.17;3.07;;;16.30;1.00;;;;;;6385189;27;20265;-55
2022/10/16 07:44:00;;;;;;;3.20;3.10;;;16.30;1.00;;;;;;6387262;27;20392;-54
2022/10/16 07:47:03;;;;;;;2.87;2.77;;;16.40;1.00;;;;;;6385509;27;20238;-54
2022/10/16 07:50:06;;;;;;;2.70;2.60;;;16.50;1.00;;;;;;6386313;27;20230;-54
2022/10/16 07:53:11;;;;;;;3.00;2.80;;;16.60;1.00;;;;;;6383787;27;20242;-54
2022/10/16 07:56:14;;;;;;;5.50;4.40;;;16.50;1.00;;;;;;6384562;27;20256;-54
2022/10/16 07:59:17;;;;;;;2.87;2.87;;;16.50;1.00;;;;;;6385785;27;20610;-54
2022/10/16 08:02:19;;;;;;;4.73;3.07;;;16.60;1.00;;;;;;6386102;27;20699;-55
2022/10/16 08:05:22;;;;;;;2.83;2.77;;;16.50;1.00;;;;;;6385366;27;20336;-53
2022/10/16 08:08:27;;;;;;;2.63;2.63;;;16.60;1.00;;;;;;6384284;27;20237;-53
2022/10/16 08:11:30;;;;;;;4.60;3.10;;;16.60;1.00;;;;;;6380120;27;20646;-56
2022/10/16 08:14:33;;;;;;;2.63;2.63;;;16.70;1.00;;;;;;6386753;27;20238;-55
2022/10/16 08:17:35;;;;;;;3.00;2.73;;;16.90;1.00;;;;;;6386240;27;20231;-54
2022/10/16 08:20:39;;;;;;;2.80;2.70;;;17.00;1.00;;;;;;6376952;27;20758;-55
2022/10/16 08:23:44;;;;;;;3.70;3.53;;;17.00;1.00;;;;;;6343486;27;20249;-55
2022/10/16 08:26:46;;;;;;;2.97;2.87;;;17.00;1.00;;;;;;6379817;27;20704;-53
2022/10/16 08:29:50;;;;;;;2.40;2.40;;;17.00;1.00;;;;;;6380925;27;20411;-55
2022/10/16 08:32:52;;;;;;;2.70;2.60;;;17.00;1.00;;;;;;6380337;27;20231;-54
2022/10/16 08:35:55;;;;;;;2.87;2.77;;;17.10;1.00;;;;;;6384476;27;20702;-53
2022/10/16 08:39:00;;;;;;;3.00;2.90;;;17.10;1.00;;;;;;6386458;27;20230;-54
2022/10/16 08:42:24;;;;;;;6.50;4.37;;;17.10;1.00;;;;;;6385443;27;20699;-53
2022/10/16 08:45:36;;;;;;;4.90;4.73;;;17.10;1.00;;;;;;6383773;27;20275;-54
2022/10/16 08:48:46;;;;;;;2.87;2.80;;;17.10;1.00;;;;;;6385550;27;20402;-53
2022/10/16 08:51:50;;;;;;;2.90;2.90;;;17.20;1.00;;;;;;6385917;27;20234;-55
2022/10/16 08:54:57;;;;;;;2.80;2.70;;;17.20;1.00;;;;;;6376820;27;20237;-53
2022/10/16 08:58:00;;;;;;;3.53;2.77;;;17.30;1.00;;;;;;6386090;27;20226;-54
2022/10/16 09:01:05;;;;;;;2.97;2.60;;;17.30;1.00;;;;;;6380159;27;20241;-54
2022/10/16 09:04:50;;;;;;;2.67;2.57;;;17.30;1.00;;;;;;6386178;27;20329;-55
2022/10/16 09:08:06;;;;;;;2.40;2.20;;;17.30;1.00;;;;;;6346268;27;20314;-54
2022/10/16 09:11:25;;;;;;;3.97;3.83;;;17.30;1.00;;;;;;6383877;27;20230;-53
2022/10/16 09:14:43;;;;;;;2.47;2.37;;;17.40;1.00;;;;;;6379536;27;20223;-53
2022/10/16 09:17:54;;;;;;;2.30;2.30;;;17.50;1.00;;;;;;6384972;27;20727;-54
2022/10/16 09:21:03;;;;;;;2.40;2.40;;;17.60;1.00;;;;;;6380431;27;20227;-54
2022/10/16 09:24:12;;;;;;;2.70;2.50;;;17.60;1.00;;;;;;6381931;27;20326;-53
2022/10/16 09:27:17;;;;;;;6.90;2.47;;;17.70;1.00;;;;;;6383755;27;20218;-54
2022/10/16 09:30:22;;;;;;;2.47;2.47;;;17.80;1.00;;;;;;6382231;27;20235;-53
2022/10/16 09:33:30;;;;;;;2.80;2.20;;;17.80;1.00;;;;;;6385014;27;20313;-56
2022/10/16 09:36:40;;;;;;;2.30;2.30;;;17.90;1.00;;;;;;6355412;27;20230;-54
2022/10/16 09:39:46;;;;;;;2.50;2.40;;;18.00;1.00;;;;;;6383831;27;20241;-53
2022/10/16 09:42:50;;;;;;;2.40;2.40;;;18.10;1.00;;;;;;6384819;27;20238;-54
2022/10/16 09:45:58;;;;;;;2.60;2.60;;;18.00;1.00;;;;;;6385092;27;20241;-55
2022/10/16 09:49:04;;;;;;;2.40;2.40;;;18.10;1.00;;;;;;6383431;27;20661;-55
2022/10/16 09:52:12;;;;;;;2.60;2.50;;;18.10;1.00;;;;;;6383302;27;20235;-53
2022/10/16 09:55:17;;;;;;;2.53;2.40;;;18.20;1.00;;;;;;6384443;27;20433;-56
2022/10/16 09:58:24;;;;;;;2.60;2.40;;;18.20;1.00;;;;;;6382867;27;20223;-56
2022/10/16 10:01:31;;;;;;;2.70;2.50;;;18.30;1.00;;;;;;6379417;27;20279;-54
2022/10/16 10:04:41;;;;;;;2.63;2.50;;;18.30;1.00;;;;;;6384494;27;20836;-54
2022/10/16 10:07:46;;;;;;;2.10;2.07;;;18.40;1.00;;;;;;6382391;27;20223;-53
2022/10/16 10:10:49;;;;;;;2.10;2.00;;;18.50;1.00;;;;;;6383672;27;20230;-55
2022/10/16 10:14:05;;;;;;;2.00;1.90;;;18.70;1.00;;;;;;6382966;27;20243;-54
2022/10/16 10:17:14;;;;;;;2.43;2.33;;;18.80;1.00;;;;;;6377162;27;20234;-54
2022/10/16 10:20:25;;;;;;;2.40;2.27;;;18.80;1.00;;;;;;6381631;27;20226;-55
2022/10/16 10:23:30;;;;;;;2.37;2.13;;;18.80;1.00;;;;;;6383973;27;20242;-54
2022/10/16 10:26:33;;;;;;;1.87;1.87;;;18.80;1.00;;;;;;6383732;27;20230;-54
2022/10/16 10:29:53;;;;;;;4.03;3.37;;;18.80;1.00;;;;;;6379531;27;20234;-54
2022/10/16 10:33:12;;;;;;;2.70;2.57;;;18.80;1.00;;;;;;6382788;27;20698;-54
2022/10/16 10:36:41;;;;;;;2.37;2.27;;;18.80;1.00;;;;;;6378892;27;20222;-54
2022/10/16 10:39:49;;;;;;;2.40;2.33;;;18.80;1.00;;;;;;6381854;27;20329;-53
2022/10/16 10:42:58;;;;;;;2.10;2.10;;;18.80;1.00;;;;;;6382597;27;20246;-55
2022/10/16 10:46:05;;;;;;;2.20;2.10;;;18.80;1.00;;;;;;6378422;27;20231;-53
2022/10/16 10:49:25;;;;;;;2.30;2.10;;;19.00;1.00;;;;;;6382151;27;20468;-54
2022/10/16 10:52:42;;;;;;;2.20;2.20;;;19.20;1.00;;;;;;6372182;27;20234;-53
2022/10/16 10:55:51;;;;;;;2.73;1.83;;;19.20;1.00;;;;;;6380753;27;20234;-55
2022/10/16 10:59:19;;;;;;;2.30;2.30;;;19.20;1.00;;;;;;6381627;27;20739;-54
2022/10/16 11:02:29;;;;;;;2.07;2.00;;;19.20;1.00;;;;;;6381552;27;20352;-55
2022/10/16 11:05:40;;;;;;;2.00;1.90;;;19.30;1.00;;;;;;6381249;27;20718;-54
2022/10/16 11:08:49;;;;;;;2.10;2.00;;;19.50;1.00;;;;;;6379626;27;20219;-55
2022/10/16 11:11:56;;;;;;;2.47;2.10;;;19.80;1.00;;;;;;6382587;27;20258;-54
2022/10/16 11:15:05;;;;;;;2.00;1.90;;;20.00;1.00;;;;;;6376668;27;20476;-54
2022/10/16 11:18:17;;;;;;;2.10;2.10;;;20.20;1.00;;;;;;6382632;27;20241;-56
2022/10/16 11:21:23;;;;;;;2.27;2.17;;;20.30;1.00;;;;;;6376181;27;20226;-55
2022/10/16 11:24:42;;;;;;;1.73;1.70;;;20.10;1.00;;;;;;6379444;27;20219;-55
2022/10/16 11:27:49;;;;;;;2.90;2.87;;;20.00;1.00;;;;;;6380427;27;20231;-54
2022/10/16 11:30:57;;;;;;;1.97;1.87;;;20.10;1.00;;;;;;6379866;27;20581;-54
2022/10/16 11:34:07;;;;;;;1.97;1.87;;;20.00;1.00;;;;;;6376423;27;20480;-55
2022/10/16 11:37:15;;;;;;;3.33;1.73;;;19.70;1.00;;;;;;6375543;27;20277;-54
2022/10/16 11:40:26;;;;;;;1.53;1.50;;;19.70;1.00;;;;;;6381056;27;20778;-54
2022/10/16 11:43:35;;;;;;;2.63;1.60;;;19.70;1.00;;;;;;6369412;27;20341;-54
2022/10/16 11:46:41;;;;;;;2.80;2.10;;;19.70;1.00;;;;;;6376086;27;20227;-54
2022/10/16 11:50:14;;;;;;;2.00;1.90;;;19.80;1.00;;;;;;6382651;27;20227;-54
2022/10/16 11:53:25;;;;;;;1.60;1.60;;;19.80;1.00;;;;;;6384129;27;20504;-55
2022/10/16 11:56:30;;;;;;;2.17;1.70;;;19.70;1.00;;;;;;6386992;27;20241;-55
2022/10/16 11:59:40;;;;;;;1.63;1.63;;;19.60;1.00;;;;;;6385649;27;20243;-54
2022/10/16 12:02:56;;;;;;;1.70;1.70;;;19.60;1.00;;;;;;6376414;27;20243;-53
2022/10/16 12:06:18;;;;;;;1.70;1.70;;;19.50;1.00;;;;;;6386604;27;20241;-54
2022/10/16 12:09:25;;;;;;;2.00;1.80;;;19.50;1.00;;;;;;6383225;27;20722;-55
2022/10/16 12:12:39;;;;;;;1.77;1.63;;;19.30;1.00;;;;;;6385996;27;20223;-54
2022/10/16 12:15:42;;;;;;;1.50;1.50;;;19.30;1.00;;;;;;6384216;27;20606;-55
2022/10/16 12:19:13;;;;;;;1.97;1.97;;;19.30;1.00;;;;;;6383054;27;20227;-53
2022/10/16 12:22:19;;;;;;;1.97;1.87;;;19.30;1.00;;;;;;6374330;27;20234;-55
2022/10/16 12:25:27;;;;;;;1.50;1.50;;;19.50;1.00;;;;;;6384781;27;20234;-54
2022/10/16 12:28:32;;;;;;;1.53;1.53;;;19.70;1.00;;;;;;6377760;27;20238;-54
2022/10/16 12:31:40;;;;;;;1.57;1.57;;;19.80;1.00;;;;;;6384116;27;20311;-52
2022/10/16 12:35:00;;;;;;;1.80;1.70;;;20.00;1.00;;;;;;6379948;27;20230;-55
2022/10/16 12:38:12;;;;;;;1.83;1.73;;;20.10;1.00;;;;;;6384926;27;20709;-55
2022/10/16 12:41:27;;;;;;;1.50;1.50;;;20.10;1.00;;;;;;6385604;27;20711;-54
2022/10/16 12:44:34;;;;;;;1.83;1.70;;;20.20;1.00;;;;;;6382178;27;20594;-55
2022/10/16 12:47:49;;;;;;;1.50;1.40;;;20.20;1.00;;;;;;6378927;27;20286;-55
2022/10/16 12:50:51;;;;;;;2.57;1.50;;;20.30;1.00;;;;;;6384055;27;20244;-55
2022/10/16 12:54:02;;;;;;;1.73;1.73;;;20.30;1.00;;;;;;6374723;27;20230;-53
2022/10/16 12:57:23;;;;;;;1.60;1.60;;;20.40;1.00;;;;;;6383240;27;20231;-54
2022/10/16 13:00:33;;;;;;;1.73;1.70;;;20.50;1.00;;;;;;6384249;27;20230;-54
2022/10/16 13:04:11;;;;;;;1.70;1.60;;;20.50;1.00;;;;;;6380330;27;20378;-55
2022/10/16 13:07:42;;;;;;;1.63;1.63;;;20.60;1.00;;;;;;6378930;27;20234;-54
2022/10/16 13:11:02;;;;;;;1.80;1.80;;;20.70;1.00;;;;;;6383943;27;20226;-55
2022/10/16 13:14:23;;;;;;;1.57;1.50;;;20.70;1.00;;;;;;6369957;27;20258;-54
2022/10/16 13:17:34;;;;;;;1.30;1.30;;;20.70;1.00;;;;;;6380951;27;20223;-54
2022/10/16 13:20:47;;;;;;;1.80;1.77;;;20.80;1.00;;;;;;6376863;27;20724;-54
2022/10/16 13:24:01;;;;;;;1.60;1.60;;;20.70;1.00;;;;;;6377528;27;20234;-55
2022/10/16 13:27:13;;;;;;;1.33;1.33;;;20.80;1.00;;;;;;6383678;27;20729;-54
2022/10/16 13:30:19;;;;;;;1.43;1.43;;;20.90;1.00;;;;;;6356533;27;20233;-55
2022/10/16 13:33:32;;;;;;;1.90;1.90;;;20.90;1.00;;;;;;6382147;27;20234;-54
2022/10/16 13:36:43;;;;;;;1.57;1.50;;;21.00;1.00;;;;;;6384481;27;20249;-54
2022/10/16 13:39:46;;;;;;;2.87;1.70;;;21.00;1.00;;;;;;6382634;27;20230;-54
2022/10/16 13:42:51;;;;;;;1.40;1.40;;;21.10;1.00;;;;;;6384596;27;20245;-54
2022/10/16 13:45:59;;;;;;;1.27;1.27;;;21.10;1.00;;;;;;6369824;27;20235;-55
2022/10/16 13:49:04;;;;;;;1.30;1.30;;;21.00;1.00;;;;;;6373500;27;20235;-54
2022/10/16 13:52:17;;;;;;;1.70;1.60;;;20.90;1.00;;;;;;6390941;27;20316;-54
2022/10/16 13:55:20;;;;;;;1.33;1.30;;;20.90;1.00;;;;;;6386474;27;20347;-55
2022/10/16 13:58:24;;;;;;;1.40;1.40;;;20.90;1.00;;;;;;6382699;27;20473;-55
2022/10/16 14:01:29;;;;;;;1.80;1.70;;;20.80;1.00;;;;;;6384600;27;20778;-54
2022/10/16 14:04:39;;;;;;;1.70;1.60;;;20.80;1.00;;;;;;6384934;27;20226;-57
2022/10/16 14:07:43;;;;;;;2.00;1.77;;;20.70;1.00;;;;;;6379208;27;20238;-54
2022/10/16 14:10:49;;;;;;;1.57;1.50;;;20.60;1.00;;;;;;6382428;27;20246;-55
2022/10/16 14:13:55;;;;;;;1.60;1.60;;;20.60;1.00;;;;;;6379925;27;20246;-55
2022/10/16 14:16:58;;;;;;;1.40;1.40;;;20.60;1.00;;;;;;6377950;27;20261;-55
2022/10/16 14:20:03;;;;;;;1.80;1.80;;;20.40;1.00;;;;;;6383921;27;20237;-54
2022/10/16 14:23:22;;;;;;;2.50;1.97;;;20.30;1.00;;;;;;6382507;27;20654;-56
2022/10/16 14:26:27;;;;;;;2.50;1.60;;;20.20;1.00;;;;;;6383743;27;20230;-55
2022/10/16 14:29:32;;;;;;;1.43;1.43;;;20.20;1.00;;;;;;6383692;27;20226;-56
2022/10/16 14:32:35;;;;;;;1.50;1.50;;;20.00;1.00;;;;;;6383084;27;20235;-54
2022/10/16 14:35:40;;;;;;;1.70;1.70;;;20.00;1.00;;;;;;6378665;27;20235;-55
2022/10/16 14:38:49;;;;;;;1.70;1.70;;;20.00;1.00;;;;;;6383269;27;20827;-54
2022/10/16 14:41:56;;;;;;;1.63;1.63;;;19.90;1.00;;;;;;6357961;27;20317;-56
2022/10/16 14:45:00;;;;;;;1.70;1.70;;;19.80;1.00;;;;;;6349959;27;20241;-54
2022/10/16 14:48:06;;;;;;;1.70;1.70;;;19.80;1.00;;;;;;6352043;27;20238;-54
2022/10/16 14:51:14;;;;;;;1.70;1.60;;;19.70;1.00;;;;;;6351413;27;20226;-54
2022/10/16 14:54:19;;;;;;;1.90;1.80;;;19.60;1.00;;;;;;6353083;27;20340;-55
2022/10/16 14:57:24;;;;;;;1.67;1.67;;;19.60;1.00;;;;;;6348573;27;20729;-55
2022/10/16 15:00:29;;;;;;;2.10;1.87;;;19.50;1.00;;;;;;6354203;27;20425;-55
2022/10/16 15:03:32;;;;;;;1.80;1.70;;;19.40;1.00;;;;;;6352832;27;20265;-55
2022/10/16 15:06:35;;;;;;;1.83;1.77;;;19.40;1.00;;;;;;6351915;27;20403;-54
2022/10/16 15:09:38;;;;;;;1.80;1.70;;;19.20;1.00;;;;;;6365460;27;20223;-54
2022/10/16 15:12:41;;;;;;;2.47;2.37;;;19.20;1.00;;;;;;6380695;27;20238;-54
2022/10/16 15:15:46;;;;;;;1.73;1.60;;;19.20;1.00;;;;;;6382905;27;20250;-55
2022/10/16 15:18:49;;;;;;;1.60;1.60;;;19.20;1.00;;;;;;6379949;27;20230;-55
2022/10/16 15:21:52;;;;;;;1.70;1.60;;;19.10;1.00;;;;;;6381404;27;20457;-56
2022/10/16 15:24:55;;;;;;;1.70;1.60;;;19.00;1.00;;;;;;6386111;27;20235;-54
2022/10/16 15:27:57;;;;;;;1.60;1.60;;;19.00;1.00;;;;;;6385077;27;20234;-56
2022/10/16 15:31:02;;;;;;;2.00;2.00;;;18.90;1.00;;;;;;6382465;27;20242;-54
2022/10/16 15:34:06;;;;;;;1.63;1.63;;;18.80;1.00;;;;;;6385507;27;20237;-55
2022/10/16 15:37:11;;;;;;;1.90;1.77;;;18.70;1.00;;;;;;6386439;27;20231;-54
2022/10/16 15:40:15;;;;;;;1.80;1.80;;;18.60;1.00;;;;;;6384018;27;20234;-55
2022/10/16 15:43:18;;;;;;;1.53;1.53;;;18.60;1.00;;;;;;6388523;27;20242;-55
2022/10/16 15:46:24;;;;;;;1.90;1.80;;;18.50;1.00;;;;;;6387784;27;20636;-55
2022/10/16 15:49:26;;;;;;;1.87;1.77;;;18.40;1.00;;;;;;6383235;27;20223;-54
2022/10/16 15:52:31;;;;;;;2.30;2.20;;;18.30;1.00;;;;;;6386000;27;20226;-55
2022/10/16 15:55:37;;;;;;;2.30;2.10;;;18.20;1.00;;;;;;6383785;27;20230;-55
2022/10/16 15:58:40;;;;;;;2.10;2.00;;;18.10;1.00;;;;;;6385849;27;20742;-54
2022/10/16 16:01:44;;;;;;;2.40;2.07;;;18.00;1.00;;;;;;6384486;27;20605;-55
2022/10/16 16:04:47;;;;;;;2.00;1.90;;;18.00;1.00;;;;;;6384824;27;20233;-56
2022/10/16 16:07:51;;;;;;;2.07;2.07;;;18.00;1.00;;;;;;6385652;27;20238;-55
2022/10/16 16:11:00;;;;;;;3.13;1.90;;;17.90;1.00;;;;;;6379477;27;20234;-55
2022/10/16 16:14:03;;;;;;;2.00;2.00;;;17.80;1.00;;;;;;6381661;27;20409;-54
2022/10/16 16:17:07;;;;;;;1.90;1.90;;;17.60;1.00;;;;;;6383085;27;20230;-54
2022/10/16 16:20:11;;;;;;;1.93;1.93;;;17.50;1.00;;;;;;6383358;27;20222;-54
2022/10/16 16:23:15;;;;;;;1.77;1.77;;;17.30;1.00;;;;;;6384644;27;20627;-55
2022/10/16 16:26:25;;;;;;;2.00;2.00;;;17.20;1.00;;;;;;6384626;27;20572;-53